Time;durP1;ratioP1;P1;durP2;ratioP2;P2;SDS_P1;SDS_P2;PMS_P1;PMS_P2;Temp;Humidity;BMP_temperature;BMP_pressure;BME280_temperature;BME280_humidity;BME280_pressure;Samples;Min_cycle;Max_cycle;Signal;HPM_P1;HPM_P2
2023/12/28 00:04:29;;;;;;;73.87;43.50;;;;;;;;;;13175894;22;20440;-86
2023/12/28 00:09:32;;;;;;;64.68;41.08;;;;;;;;;;13175512;22;20381;-85
2023/12/28 00:14:36;;;;;;;72.38;43.05;;;;;;;;;;13175204;22;20349;-86
2023/12/28 00:19:38;;;;;;;71.10;42.17;;;;;;;;;;13175202;22;20349;-86
2023/12/28 00:24:40;;;;;;;67.95;41.53;;;;;;;;;;13173649;22;20434;-85
2023/12/28 00:29:44;;;;;;;67.25;41.08;;;;;;;;;;13198065;22;20399;-86
2023/12/28 00:34:46;;;;;;;63.80;40.13;;;;;;;;;;13175566;22;20374;-86
2023/12/28 00:39:50;;;;;;;62.70;37.33;;;;;;;;;;13197757;22;20406;-87
2023/12/28 00:44:53;;;;;;;61.70;37.60;;;;;;;;;;13172502;22;20387;-86
2023/12/28 00:49:56;;;;;;;60.30;36.33;;;;;;;;;;13175236;22;20415;-86
2023/12/28 00:54:58;;;;;;;59.47;37.15;;;;;;;;;;13174002;22;20350;-87
2023/12/28 01:00:02;;;;;;;59.65;36.78;;;;;;;;;;13175255;22;20369;-87
2023/12/28 01:05:05;;;;;;;61.65;38.70;;;;;;;;;;13174872;22;20397;-86
2023/12/28 01:10:08;;;;;;;65.50;39.57;;;;;;;;;;13173467;22;20374;-86
2023/12/28 01:15:12;;;;;;;61.00;39.25;;;;;;;;;;13173447;22;20350;-86
2023/12/28 01:20:15;;;;;;;62.78;40.20;;;;;;;;;;13195488;22;20992;-87
2023/12/28 01:25:17;;;;;;;67.28;39.95;;;;;;;;;;13174774;22;20358;-86
2023/12/28 01:30:21;;;;;;;62.45;39.80;;;;;;;;;;13174605;22;20377;-86
2023/12/28 01:35:23;;;;;;;65.88;40.03;;;;;;;;;;13174536;22;20392;-86
2023/12/28 01:40:25;;;;;;;64.10;38.83;;;;;;;;;;13195261;22;20358;-86
2023/12/28 01:45:29;;;;;;;62.00;38.53;;;;;;;;;;13196206;22;20353;-86
2023/12/28 01:50:32;;;;;;;57.38;36.42;;;;;;;;;;13174216;22;20914;-86
2023/12/28 01:55:35;;;;;;;59.85;36.63;;;;;;;;;;13166019;22;20369;-86
2023/12/28 02:00:39;;;;;;;59.92;37.58;;;;;;;;;;13175161;22;20357;-86
2023/12/28 02:05:41;;;;;;;56.95;36.22;;;;;;;;;;13173157;22;20395;-86
2023/12/28 02:10:44;;;;;;;57.30;33.80;;;;;;;;;;13196328;22;20453;-87
2023/12/28 02:15:52;;;;;;;59.28;35.60;;;;;;;;;;13176494;22;20689;-86
2023/12/28 02:20:55;;;;;;;59.13;34.53;;;;;;;;;;13194425;22;20391;-87
2023/12/28 02:25:59;;;;;;;57.67;35.93;;;;;;;;;;13174551;22;20389;-87
2023/12/28 02:31:04;;;;;;;59.08;36.75;;;;;;;;;;13170196;22;20438;-86
2023/12/28 02:36:11;;;;;;;60.27;36.93;;;;;;;;;;13199037;22;20402;-86
2023/12/28 02:41:14;;;;;;;61.85;38.55;;;;;;;;;;13175592;22;20430;-86
2023/12/28 02:46:17;;;;;;;59.33;37.87;;;;;;;;;;13198857;22;20447;-87
2023/12/28 02:51:19;;;;;;;59.83;38.50;;;;;;;;;;13176949;22;20454;-86
2023/12/28 02:56:23;;;;;;;63.43;40.23;;;;;;;;;;13199284;22;20830;-86
2023/12/28 03:01:25;;;;;;;60.90;40.30;;;;;;;;;;13199732;22;20430;-86
2023/12/28 03:06:28;;;;;;;61.97;40.05;;;;;;;;;;13176205;22;20821;-85
2023/12/28 03:11:31;;;;;;;65.35;40.75;;;;;;;;;;13176740;22;20406;-87
2023/12/28 03:16:34;;;;;;;68.87;41.00;;;;;;;;;;13177994;22;20370;-87
2023/12/28 03:21:40;;;;;;;62.67;39.72;;;;;;;;;;13174920;22;20358;-86
2023/12/28 03:26:44;;;;;;;64.80;39.93;;;;;;;;;;13197426;22;20430;-86
2023/12/28 03:31:46;;;;;;;63.25;39.00;;;;;;;;;;13175064;22;20442;-86
2023/12/28 03:36:48;;;;;;;63.83;40.58;;;;;;;;;;13176058;22;20361;-86
2023/12/28 03:41:52;;;;;;;67.00;40.30;;;;;;;;;;13175489;22;20366;-86
2023/12/28 03:46:56;;;;;;;64.95;40.15;;;;;;;;;;13173564;22;20438;-86
2023/12/28 03:51:58;;;;;;;63.13;38.17;;;;;;;;;;13175324;22;20377;-87
2023/12/28 03:57:02;;;;;;;64.88;39.03;;;;;;;;;;13175287;22;20373;-85
2023/12/28 04:02:04;;;;;;;60.13;38.08;;;;;;;;;;13176817;22;20391;-86
2023/12/28 04:07:07;;;;;;;58.77;36.57;;;;;;;;;;13174789;22;20785;-87
2023/12/28 04:12:12;;;;;;;62.13;37.53;;;;;;;;;;13197677;22;20446;-86
2023/12/28 04:17:14;;;;;;;60.67;37.10;;;;;;;;;;13174974;22;20916;-86
2023/12/28 04:22:16;;;;;;;58.73;38.03;;;;;;;;;;13176845;22;20357;-86
2023/12/28 04:27:20;;;;;;;56.03;35.58;;;;;;;;;;13174312;22;20391;-86
2023/12/28 04:32:23;;;;;;;56.80;34.65;;;;;;;;;;13174657;22;20377;-86
2023/12/28 04:37:27;;;;;;;53.95;33.58;;;;;;;;;;13175327;22;20362;-85
2023/12/28 04:42:31;;;;;;;51.97;33.50;;;;;;;;;;13173865;22;20735;-86
2023/12/28 04:47:33;;;;;;;51.65;32.88;;;;;;;;;;13175026;22;20354;-86
2023/12/28 04:52:35;;;;;;;52.95;31.25;;;;;;;;;;13174622;22;20381;-86
2023/12/28 04:57:39;;;;;;;43.58;28.10;;;;;;;;;;13175079;22;20813;-86
2023/12/28 05:02:41;;;;;;;40.95;26.23;;;;;;;;;;13175074;22;20426;-86
2023/12/28 05:07:44;;;;;;;38.15;24.83;;;;;;;;;;13174725;22;20821;-86
2023/12/28 05:12:47;;;;;;;38.70;23.45;;;;;;;;;;13176587;22;20671;-86
2023/12/28 05:17:50;;;;;;;33.75;22.25;;;;;;;;;;13175637;22;20392;-86
2023/12/28 05:22:52;;;;;;;38.55;23.52;;;;;;;;;;13174180;22;20741;-86
2023/12/28 05:27:56;;;;;;;33.60;21.45;;;;;;;;;;13174750;22;20367;-86
2023/12/28 05:32:59;;;;;;;29.00;19.50;;;;;;;;;;13175095;22;20377;-86
2023/12/28 05:38:01;;;;;;;31.67;19.13;;;;;;;;;;13174880;22;20821;-86
2023/12/28 05:43:05;;;;;;;29.40;18.48;;;;;;;;;;13175873;22;20395;-87
2023/12/28 05:48:08;;;;;;;27.47;17.93;;;;;;;;;;13179878;22;20425;-86
2023/12/28 05:53:13;;;;;;;25.25;17.00;;;;;;;;;;13199745;22;20422;-86
2023/12/28 05:58:17;;;;;;;30.70;18.57;;;;;;;;;;13200123;22;20349;-86
2023/12/28 06:03:19;;;;;;;29.55;19.02;;;;;;;;;;13177807;22;20445;-86
2023/12/28 06:08:22;;;;;;;30.77;18.42;;;;;;;;;;13178334;22;20389;-87
2023/12/28 06:13:26;;;;;;;27.00;17.10;;;;;;;;;;13177157;22;20377;-85
2023/12/28 06:18:28;;;;;;;32.13;18.03;;;;;;;;;;13177655;22;20894;-87
2023/12/28 06:23:30;;;;;;;27.13;17.35;;;;;;;;;;13178564;22;20353;-86
2023/12/28 06:28:34;;;;;;;26.75;17.83;;;;;;;;;;13177925;22;20418;-86
2023/12/28 06:33:36;;;;;;;26.45;17.77;;;;;;;;;;13176801;22;20377;-84
2023/12/28 06:38:39;;;;;;;30.67;17.30;;;;;;;;;;13176175;22;20358;-89
2023/12/28 06:43:43;;;;;;;28.40;17.43;;;;;;;;;;13174306;22;20362;-86
2023/12/28 06:48:45;;;;;;;27.05;17.15;;;;;;;;;;13173314;22;20391;-86
2023/12/28 06:53:48;;;;;;;29.13;17.67;;;;;;;;;;13175511;22;20373;-86
2023/12/28 06:58:52;;;;;;;25.65;17.48;;;;;;;;;;13175576;22;20353;-86
2023/12/28 07:03:54;;;;;;;29.33;18.33;;;;;;;;;;13175098;22;20410;-86
2023/12/28 07:08:56;;;;;;;28.57;17.83;;;;;;;;;;13176816;22;20396;-86
2023/12/28 07:14:00;;;;;;;26.50;17.67;;;;;;;;;;13176603;22;20499;-85
2023/12/28 07:19:03;;;;;;;28.25;16.60;;;;;;;;;;13175791;22;20358;-86
2023/12/28 07:24:06;;;;;;;28.80;18.03;;;;;;;;;;13198610;22;20401;-86
2023/12/28 07:29:10;;;;;;;30.00;18.47;;;;;;;;;;13176757;22;20871;-86
2023/12/28 07:34:12;;;;;;;31.45;19.25;;;;;;;;;;13176475;22;20407;-86
2023/12/28 07:39:15;;;;;;;34.70;19.83;;;;;;;;;;13176271;22;20361;-86
2023/12/28 07:44:19;;;;;;;31.65;18.77;;;;;;;;;;13176757;22;20369;-86
2023/12/28 07:49:23;;;;;;;40.70;23.57;;;;;;;;;;13176103;22;20836;-86
2023/12/28 07:54:25;;;;;;;57.73;31.83;;;;;;;;;;13175343;22;20381;-86
2023/12/28 07:59:29;;;;;;;60.83;36.87;;;;;;;;;;13175713;22;20837;-86
2023/12/28 08:04:31;;;;;;;43.05;24.17;;;;;;;;;;13173816;22;20905;-85
2023/12/28 08:09:35;;;;;;;34.13;21.47;;;;;;;;;;13177840;22;20383;-86
2023/12/28 08:14:38;;;;;;;39.40;23.60;;;;;;;;;;13176425;22;20594;-85
2023/12/28 08:19:41;;;;;;;52.35;30.40;;;;;;;;;;13175055;22;20419;-87
2023/12/28 08:24:44;;;;;;;39.33;23.97;;;;;;;;;;13175630;22;20817;-86
2023/12/28 08:29:48;;;;;;;42.53;25.73;;;;;;;;;;13175099;22;20422;-87
2023/12/28 08:34:50;;;;;;;33.55;21.90;;;;;;;;;;13175126;22;20407;-86
2023/12/28 08:39:53;;;;;;;33.80;21.73;;;;;;;;;;13175704;22;20430;-86
2023/12/28 08:44:57;;;;;;;35.63;21.58;;;;;;;;;;13175879;22;20406;-87
2023/12/28 08:49:59;;;;;;;36.97;23.27;;;;;;;;;;13175169;22;20894;-85
2023/12/28 08:55:02;;;;;;;36.90;23.27;;;;;;;;;;13174271;22;20381;-86
2023/12/28 09:00:09;;;;;;;36.80;23.13;;;;;;;;;;13174776;22;20682;-86
2023/12/28 09:05:11;;;;;;;32.53;21.40;;;;;;;;;;13171771;22;20362;-87
2023/12/28 09:10:14;;;;;;;36.20;21.53;;;;;;;;;;13171601;22;20391;-87
2023/12/28 09:15:18;;;;;;;35.05;20.90;;;;;;;;;;13172792;22;20377;-86
2023/12/28 09:20:21;;;;;;;31.60;20.53;;;;;;;;;;13146138;22;20362;-86
2023/12/28 09:25:24;;;;;;;33.60;21.65;;;;;;;;;;13172023;22;20387;-85
2023/12/28 09:30:28;;;;;;;34.85;20.27;;;;;;;;;;13171638;22;20358;-87
2023/12/28 09:35:30;;;;;;;33.43;20.43;;;;;;;;;;13172540;22;20395;-86
2023/12/28 09:40:32;;;;;;;34.60;22.67;;;;;;;;;;13072144;22;21195;-86
2023/12/28 09:45:37;;;;;;;35.57;21.97;;;;;;;;;;13042485;22;20368;-84
2023/12/28 09:50:39;;;;;;;34.72;21.42;;;;;;;;;;13040686;22;20434;-85
2023/12/28 09:55:42;;;;;;;26.95;17.63;;;;;;;;;;13040082;22;20391;-86
2023/12/28 10:00:47;;;;;;;28.92;17.85;;;;;;;;;;13042969;22;20418;-86
2023/12/28 10:05:49;;;;;;;30.40;17.73;;;;;;;;;;13037635;22;20438;-87
2023/12/28 10:10:54;;;;;;;24.20;16.37;;;;;;;;;;13041234;22;20431;-86
2023/12/28 10:15:59;;;;;;;27.60;17.30;;;;;;;;;;13040260;22;20403;-86
2023/12/28 10:21:02;;;;;;;28.70;18.42;;;;;;;;;;13042957;22;20369;-87
2023/12/28 10:26:05;;;;;;;33.72;19.83;;;;;;;;;;13042308;22;20369;-86
2023/12/28 10:31:10;;;;;;;31.37;20.27;;;;;;;;;;13044797;22;20368;-86
2023/12/28 10:36:15;;;;;;;30.03;19.57;;;;;;;;;;13047086;22;20415;-86
2023/12/28 10:41:18;;;;;;;30.70;19.60;;;;;;;;;;13048090;22;20372;-86
2023/12/28 10:46:27;;;;;;;31.35;19.38;;;;;;;;;;13067591;22;20419;-86
2023/12/28 10:51:30;;;;;;;31.58;19.55;;;;;;;;;;13046610;22;20377;-86
2023/12/28 10:56:37;;;;;;;60.25;33.47;;;;;;;;;;13045381;22;20368;-86
2023/12/28 11:01:43;;;;;;;31.98;21.05;;;;;;;;;;13043748;22;20811;-86
2023/12/28 11:06:47;;;;;;;42.67;26.45;;;;;;;;;;13046284;22;20832;-86
2023/12/28 11:11:53;;;;;;;38.30;22.33;;;;;;;;;;13045844;22;20380;-85
2023/12/28 11:17:00;;;;;;;63.07;37.90;;;;;;;;;;13041693;22;20361;-86
2023/12/28 11:22:04;;;;;;;32.57;20.43;;;;;;;;;;13040382;22;20365;-85
2023/12/28 11:27:06;;;;;;;35.25;21.20;;;;;;;;;;13040498;22;20345;-86
2023/12/28 11:32:10;;;;;;;30.35;20.42;;;;;;;;;;13039874;22;20738;-86
2023/12/28 11:37:18;;;;;;;39.83;21.07;;;;;;;;;;13057000;22;20682;-86
2023/12/28 11:42:22;;;;;;;38.87;20.67;;;;;;;;;;13036506;22;20704;-86
2023/12/28 11:47:27;;;;;;;33.75;21.27;;;;;;;;;;13037354;22;20819;-86
2023/12/28 11:52:31;;;;;;;28.40;19.48;;;;;;;;;;13039181;22;20848;-87
2023/12/28 11:57:34;;;;;;;37.60;24.40;;;;;;;;;;13039086;22;21005;-85
2023/12/28 12:02:37;;;;;;;28.37;18.13;;;;;;;;;;13037473;22;20361;-86
2023/12/28 12:07:40;;;;;;;28.55;18.73;;;;;;;;;;13042721;22;20364;-86
2023/12/28 12:12:43;;;;;;;29.27;18.30;;;;;;;;;;13059160;22;20836;-86
2023/12/28 12:17:47;;;;;;;31.38;19.30;;;;;;;;;;13059376;22;20446;-84
2023/12/28 12:22:50;;;;;;;30.55;18.80;;;;;;;;;;13034603;22;20467;-86
2023/12/28 12:27:53;;;;;;;31.08;18.40;;;;;;;;;;13032294;22;20494;-85
2023/12/28 12:32:57;;;;;;;29.52;19.83;;;;;;;;;;13008244;22;20732;-85
2023/12/28 12:37:59;;;;;;;30.75;19.98;;;;;;;;;;13032987;22;20857;-86
2023/12/28 12:43:02;;;;;;;31.73;20.08;;;;;;;;;;13035452;22;20377;-86
2023/12/28 12:48:07;;;;;;;31.92;20.77;;;;;;;;;;13036371;22;20380;-86
2023/12/28 12:53:09;;;;;;;31.80;19.80;;;;;;;;;;13034294;22;20380;-84
2023/12/28 12:58:12;;;;;;;30.40;18.87;;;;;;;;;;13032918;22;20369;-86
2023/12/28 13:03:17;;;;;;;29.90;18.00;;;;;;;;;;13032626;22;20439;-86
2023/12/28 13:08:19;;;;;;;29.70;18.65;;;;;;;;;;13041028;22;20426;-86
2023/12/28 13:13:22;;;;;;;26.10;17.27;;;;;;;;;;13042907;22;20407;-87
2023/12/28 13:18:26;;;;;;;26.70;17.20;;;;;;;;;;13064394;22;20353;-86
2023/12/28 13:23:29;;;;;;;26.13;17.90;;;;;;;;;;13040758;22;20361;-88
2023/12/28 13:28:31;;;;;;;27.33;17.02;;;;;;;;;;13046084;22;20693;-86
2023/12/28 13:33:35;;;;;;;25.25;16.67;;;;;;;;;;13044748;22;20434;-86
2023/12/28 13:38:37;;;;;;;31.10;18.23;;;;;;;;;;13045222;22;20364;-88
2023/12/28 13:43:40;;;;;;;26.65;17.52;;;;;;;;;;13043756;22;20688;-86
2023/12/28 13:48:44;;;;;;;26.80;17.55;;;;;;;;;;13061350;22;20426;-87
2023/12/28 13:53:46;;;;;;;26.53;17.57;;;;;;;;;;13041817;22;20406;-87
2023/12/28 13:58:48;;;;;;;29.33;18.77;;;;;;;;;;13064009;22;20426;-87
2023/12/28 14:03:52;;;;;;;27.30;18.73;;;;;;;;;;13065824;22;20379;-87
2023/12/28 14:08:56;;;;;;;34.70;20.08;;;;;;;;;;13045110;22;20392;-87
2023/12/28 14:13:58;;;;;;;29.50;19.00;;;;;;;;;;13047417;22;20670;-87
2023/12/28 14:19:02;;;;;;;30.53;19.37;;;;;;;;;;13049637;22;20403;-86
2023/12/28 14:24:06;;;;;;;37.78;20.15;;;;;;;;;;13049002;22;20402;-87
2023/12/28 14:29:09;;;;;;;33.92;18.95;;;;;;;;;;13047221;22;20373;-87
2023/12/28 14:34:13;;;;;;;30.23;18.30;;;;;;;;;;13047535;22;20426;-88
2023/12/28 14:39:18;;;;;;;28.43;18.97;;;;;;;;;;13039285;22;20843;-86
2023/12/28 14:44:20;;;;;;;40.42;22.73;;;;;;;;;;13039899;22;20373;-87
2023/12/28 14:49:24;;;;;;;31.45;19.23;;;;;;;;;;13045035;22;20373;-87
2023/12/28 14:54:26;;;;;;;28.50;17.80;;;;;;;;;;13046878;22;20385;-87
2023/12/28 14:59:29;;;;;;;29.30;17.83;;;;;;;;;;13044704;22;20361;-87
2023/12/28 15:04:32;;;;;;;27.80;18.27;;;;;;;;;;13044836;22;20728;-87
2023/12/28 15:09:35;;;;;;;30.90;18.07;;;;;;;;;;13043227;22;20444;-87
2023/12/28 15:14:38;;;;;;;29.08;17.35;;;;;;;;;;13060605;22;20380;-87
2023/12/28 15:19:43;;;;;;;28.60;18.53;;;;;;;;;;13016065;22;20369;-87
2023/12/28 15:24:46;;;;;;;29.05;17.92;;;;;;;;;;13043576;22;20360;-86
2023/12/28 15:29:48;;;;;;;29.40;18.17;;;;;;;;;;13016956;22;20365;-87
2023/12/28 15:34:52;;;;;;;41.30;22.20;;;;;;;;;;13039437;22;20441;-88
2023/12/28 15:51:34;;;;;;;32.25;19.45;;;;;;;;;;13022656;22;20364;-85
2023/12/28 15:56:36;;;;;;;37.43;20.47;;;;;;;;;;13031240;22;20439;-86
2023/12/28 16:01:39;;;;;;;35.63;21.43;;;;;;;;;;13029564;22;20422;-85
2023/12/28 16:06:43;;;;;;;34.60;20.93;;;;;;;;;;13031431;22;20373;-86
2023/12/28 16:11:45;;;;;;;37.03;21.98;;;;;;;;;;13031402;22;20381;-86
2023/12/28 16:16:48;;;;;;;44.03;24.77;;;;;;;;;;13035132;22;20388;-86
2023/12/28 16:21:52;;;;;;;41.77;24.20;;;;;;;;;;13031747;22;20450;-86
2023/12/28 16:26:55;;;;;;;44.33;24.58;;;;;;;;;;13031451;22;20381;-86
2023/12/28 16:32:00;;;;;;;44.28;25.83;;;;;;;;;;13030754;22;20442;-86
2023/12/28 16:37:04;;;;;;;43.63;25.30;;;;;;;;;;13032152;22;20377;-85
2023/12/28 16:42:07;;;;;;;48.70;26.38;;;;;;;;;;13031620;22;20361;-86
2023/12/28 16:47:10;;;;;;;50.30;26.63;;;;;;;;;;13031796;22;20876;-86
2023/12/28 16:52:14;;;;;;;48.20;26.70;;;;;;;;;;13031613;22;20373;-86
2023/12/28 16:57:17;;;;;;;54.13;27.55;;;;;;;;;;13030495;22;20419;-86
2023/12/28 17:02:22;;;;;;;51.35;26.25;;;;;;;;;;13030932;22;20438;-87
2023/12/28 17:07:26;;;;;;;58.28;29.95;;;;;;;;;;13029399;22;20434;-86
2023/12/28 17:12:38;;;;;;;50.03;27.35;;;;;;;;;;13029313;22;20748;-87
2023/12/28 17:17:42;;;;;;;46.90;25.67;;;;;;;;;;13031673;22;20385;-86
2023/12/28 17:22:48;;;;;;;50.03;27.45;;;;;;;;;;13030030;22;20361;-86
2023/12/28 17:27:54;;;;;;;41.25;24.73;;;;;;;;;;13048484;22;20372;-86
2023/12/28 17:32:59;;;;;;;62.10;34.67;;;;;;;;;;13031531;22;20376;-86
2023/12/28 17:38:04;;;;;;;58.17;33.95;;;;;;;;;;13032044;22;20365;-87
2023/12/28 17:43:14;;;;;;;51.50;29.53;;;;;;;;;;13033423;22;20361;-86
2023/12/28 17:48:21;;;;;;;49.30;28.05;;;;;;;;;;13030968;22;20429;-86
2023/12/28 17:53:26;;;;;;;47.67;29.60;;;;;;;;;;13028330;22;20504;-87
2023/12/28 17:58:28;;;;;;;54.92;31.83;;;;;;;;;;13032799;22;20372;-86
2023/12/28 18:03:31;;;;;;;64.45;41.65;;;;;;;;;;13041340;22;20365;-87
2023/12/28 18:08:35;;;;;;;60.42;34.05;;;;;;;;;;13031853;22;20438;-87
2023/12/28 18:13:37;;;;;;;55.50;36.80;;;;;;;;;;13030303;22;20381;-86
2023/12/28 18:18:40;;;;;;;57.50;36.30;;;;;;;;;;13031203;22;20411;-87
2023/12/28 18:23:44;;;;;;;57.65;32.35;;;;;;;;;;13032943;22;20376;-87
2023/12/28 18:28:46;;;;;;;55.97;32.78;;;;;;;;;;13030848;22;20384;-87
2023/12/28 18:33:49;;;;;;;60.15;35.90;;;;;;;;;;13030655;22;20704;-86
2023/12/28 18:38:53;;;;;;;59.90;35.80;;;;;;;;;;13033069;22;20422;-85
2023/12/28 18:43:55;;;;;;;68.85;41.92;;;;;;;;;;13033034;22;20384;-86
2023/12/28 18:48:58;;;;;;;64.20;39.42;;;;;;;;;;13033946;22;20380;-86
2023/12/28 18:54:03;;;;;;;61.63;36.83;;;;;;;;;;13036821;22;20389;-86
2023/12/28 18:59:05;;;;;;;63.92;36.97;;;;;;;;;;13038562;22;20373;-86
2023/12/28 19:04:07;;;;;;;58.25;34.72;;;;;;;;;;13036019;22;20377;-86
2023/12/28 19:09:11;;;;;;;62.88;37.78;;;;;;;;;;13035133;22;20373;-86
2023/12/28 19:14:13;;;;;;;59.83;35.80;;;;;;;;;;13048172;22;20372;-86
2023/12/28 19:19:16;;;;;;;59.70;36.13;;;;;;;;;;13037171;22;20369;-86
2023/12/28 19:24:20;;;;;;;58.63;36.35;;;;;;;;;;13034345;22;20412;-85
2023/12/28 19:29:22;;;;;;;59.77;35.37;;;;;;;;;;13037833;22;20365;-86
2023/12/28 19:34:24;;;;;;;70.47;39.23;;;;;;;;;;13059604;22;20929;-85
2023/12/28 19:39:29;;;;;;;67.63;39.37;;;;;;;;;;13036267;22;20369;-85
2023/12/28 19:44:31;;;;;;;69.60;40.28;;;;;;;;;;13036243;22;20689;-85
2023/12/28 19:49:34;;;;;;;68.72;39.63;;;;;;;;;;13041083;22;20442;-85
2023/12/28 19:54:38;;;;;;;73.57;40.50;;;;;;;;;;13036357;22;20435;-85
2023/12/28 19:59:41;;;;;;;67.43;40.77;;;;;;;;;;13036867;22;20384;-85
2023/12/28 20:04:43;;;;;;;64.75;38.42;;;;;;;;;;13048814;22;21383;-85
2023/12/28 20:09:47;;;;;;;60.55;38.42;;;;;;;;;;13035894;22;20422;-85
2023/12/28 20:14:49;;;;;;;69.67;39.10;;;;;;;;;;13036530;22;20423;-86
2023/12/28 20:19:53;;;;;;;62.13;38.70;;;;;;;;;;13036655;22;20377;-85
2023/12/28 20:24:57;;;;;;;64.53;37.93;;;;;;;;;;13055758;22;20422;-86
2023/12/28 20:30:00;;;;;;;63.67;39.33;;;;;;;;;;13036455;22;20360;-84
2023/12/28 20:35:02;;;;;;;65.50;39.67;;;;;;;;;;13038163;22;20474;-86
2023/12/28 20:40:08;;;;;;;63.20;38.33;;;;;;;;;;13037133;22;20663;-85
2023/12/28 20:45:10;;;;;;;67.85;39.83;;;;;;;;;;13036482;22;20381;-86
2023/12/28 20:50:13;;;;;;;70.90;39.83;;;;;;;;;;13036272;22;20373;-85
2023/12/28 20:55:17;;;;;;;61.95;37.55;;;;;;;;;;13036832;22;20762;-84
2023/12/28 21:00:20;;;;;;;65.70;37.33;;;;;;;;;;13037411;22;20407;-85
2023/12/28 21:05:22;;;;;;;67.70;38.75;;;;;;;;;;13035491;22;20385;-84
2023/12/28 21:10:28;;;;;;;71.60;41.72;;;;;;;;;;13034087;22;20458;-84
2023/12/28 21:15:31;;;;;;;72.80;42.50;;;;;;;;;;13034886;22;20376;-84
2023/12/28 21:20:33;;;;;;;72.83;44.57;;;;;;;;;;13034367;22;20403;-83
2023/12/28 21:25:37;;;;;;;84.68;48.00;;;;;;;;;;13007455;22;20674;-84
2023/12/28 21:30:41;;;;;;;75.60;44.90;;;;;;;;;;13035593;22;20397;-84
2023/12/28 21:35:48;;;;;;;79.57;45.63;;;;;;;;;;13032986;22;20385;-84
2023/12/28 21:40:54;;;;;;;77.75;45.08;;;;;;;;;;13032613;22;20377;-84
2023/12/28 21:45:56;;;;;;;75.68;43.80;;;;;;;;;;13037580;22;20373;-84
2023/12/28 21:51:10;;;;;;;72.90;42.83;;;;;;;;;;13033247;22;20430;-84
2023/12/28 21:56:19;;;;;;;78.28;44.40;;;;;;;;;;13042323;22;20854;-84
2023/12/28 22:01:21;;;;;;;78.07;44.97;;;;;;;;;;13033337;22;20377;-84
2023/12/28 22:06:23;;;;;;;79.53;46.63;;;;;;;;;;13029858;22;20369;-83
2023/12/28 22:11:27;;;;;;;78.55;45.17;;;;;;;;;;13032971;22;20395;-85
2023/12/28 22:16:29;;;;;;;74.25;43.30;;;;;;;;;;13032178;22;20418;-85
2023/12/28 22:21:32;;;;;;;76.72;44.33;;;;;;;;;;13051900;22;20434;-85
2023/12/28 22:26:36;;;;;;;76.53;43.17;;;;;;;;;;13036003;22;20365;-84
2023/12/28 22:31:39;;;;;;;68.05;41.47;;;;;;;;;;13038715;22;20365;-84
2023/12/28 22:36:41;;;;;;;73.28;43.60;;;;;;;;;;13041101;22;20377;-84
2023/12/28 22:41:45;;;;;;;71.50;43.63;;;;;;;;;;13045752;22;20403;-85
2023/12/28 22:46:47;;;;;;;72.38;43.20;;;;;;;;;;13045254;22;20430;-85
2023/12/28 22:51:50;;;;;;;68.10;41.55;;;;;;;;;;13044429;22;20364;-85
2023/12/28 22:56:53;;;;;;;70.85;41.58;;;;;;;;;;13044250;22;20415;-85
2023/12/28 23:01:56;;;;;;;73.07;41.87;;;;;;;;;;13045490;22;20427;-83
2023/12/28 23:06:58;;;;;;;69.97;40.58;;;;;;;;;;13067216;22;20365;-85
2023/12/28 23:12:02;;;;;;;67.78;40.85;;;;;;;;;;13046145;22;20837;-86
2023/12/28 23:17:04;;;;;;;69.90;41.73;;;;;;;;;;13045310;22;20381;-84
2023/12/28 23:22:07;;;;;;;68.93;40.53;;;;;;;;;;13067011;22;20829;-84
2023/12/28 23:27:11;;;;;;;70.00;41.50;;;;;;;;;;13037853;22;20403;-86
2023/12/28 23:32:13;;;;;;;67.90;40.27;;;;;;;;;;13043881;22;20895;-87
2023/12/28 23:37:15;;;;;;;63.47;39.63;;;;;;;;;;13044192;22;20457;-86
2023/12/28 23:42:19;;;;;;;69.65;41.17;;;;;;;;;;13042708;22;20431;-86
2023/12/28 23:47:22;;;;;;;74.63;43.90;;;;;;;;;;13042469;22;20365;-86
2023/12/28 23:52:24;;;;;;;72.90;42.80;;;;;;;;;;13042605;22;20434;-84
2023/12/28 23:57:28;;;;;;;73.22;42.00;;;;;;;;;;13044281;22;20442;-86
